Time;durP1;ratioP1;P1;durP2;ratioP2;P2;SDS_P1;SDS_P2;PMS_P1;PMS_P2;Temp;Humidity;BMP_temperature;BMP_pressure;BME280_temperature;BME280_humidity;BME280_pressure;Samples;Min_cycle;Max_cycle;Signal;HPM_P1;HPM_P2
2023/09/11 00:00:26;;;;;;;11.63;8.30;;;;;;;24.73;100.00;101293.44;5155258;28;20031;-73
2023/09/11 00:02:57;;;;;;;12.05;8.90;;;;;;;24.67;100.00;101280.75;5155503;28;20047;-71
2023/09/11 00:05:29;;;;;;;19.10;10.05;;;;;;;24.69;100.00;101281.41;5155092;28;20039;-71
2023/09/11 00:08:00;;;;;;;16.15;8.57;;;;;;;24.39;100.00;101288.25;5149482;28;20043;-75
2023/09/11 00:10:32;;;;;;;17.48;9.25;;;;;;;24.39;100.00;101284.72;5149267;29;20043;-74
2023/09/11 00:13:03;;;;;;;14.95;9.05;;;;;;;24.78;100.00;101283.03;5154306;28;20131;-71
2023/09/11 00:15:35;;;;;;;14.35;9.02;;;;;;;24.36;100.00;101267.19;5154648;28;20118;-71
2023/09/11 00:18:06;;;;;;;14.35;8.20;;;;;;;24.84;100.00;101278.81;5154260;28;20038;-73
2023/09/11 00:20:37;;;;;;;14.57;8.85;;;;;;;24.74;100.00;101271.00;5154359;29;20039;-72
2023/09/11 00:23:09;;;;;;;14.68;9.25;;;;;;;24.63;100.00;101264.19;5153850;29;20035;-72
2023/09/11 00:25:40;;;;;;;15.05;8.75;;;;;;;24.74;100.00;101274.53;5155007;28;20081;-71
2023/09/11 00:28:11;;;;;;;17.77;8.50;;;;;;;24.56;100.00;101265.94;5151572;28;20027;-72
2023/09/11 00:30:43;;;;;;;22.15;8.43;;;;;;;24.71;100.00;101272.22;5161039;28;20046;-70
2023/09/11 00:33:16;;;;;;;20.42;9.02;;;;;;;24.69;100.00;101276.06;5155207;28;20035;-73
2023/09/11 00:35:47;;;;;;;13.55;8.63;;;;;;;24.54;100.00;101268.78;5154298;29;20818;-71
2023/09/11 00:38:18;;;;;;;14.57;9.50;;;;;;;24.60;100.00;101267.22;5150171;28;20078;-71
2023/09/11 00:40:49;;;;;;;15.30;9.05;;;;;;;24.39;100.00;101266.84;5145792;29;20106;-73
2023/09/11 00:43:21;;;;;;;17.65;9.25;;;;;;;24.54;100.00;101276.81;5154165;28;20110;-71
2023/09/11 00:45:55;;;;;;;19.33;9.82;;;;;;;24.70;100.00;101272.38;5153921;28;20098;-71
2023/09/11 00:48:26;;;;;;;15.10;9.02;;;;;;;24.55;100.00;101262.41;5154684;28;20028;-70
2023/09/11 00:50:58;;;;;;;15.07;8.50;;;;;;;24.28;100.00;101270.72;5155385;28;20031;-71
2023/09/11 00:53:29;;;;;;;16.65;8.90;;;;;;;24.22;100.00;101274.09;5152619;29;20046;-71
2023/09/11 00:56:01;;;;;;;15.65;8.57;;;;;;;24.48;100.00;101266.78;5154413;28;20035;-72
2023/09/11 00:58:32;;;;;;;13.93;8.43;;;;;;;24.28;100.00;101269.88;5154346;28;20090;-72
2023/09/11 01:01:04;;;;;;;14.77;9.23;;;;;;;24.01;100.00;101269.28;5154605;28;20027;-73
2023/09/11 01:03:36;;;;;;;14.40;10.50;;;;;;;24.16;100.00;101272.91;5176281;22;20043;-77
2023/09/11 01:06:09;;;;;;;19.27;9.98;;;;;;;23.89;100.00;101239.38;5174741;28;20027;-78
2023/09/11 01:08:41;;;;;;;10.70;8.63;;;;;;;24.08;100.00;101240.84;5178531;28;20026;-78
2023/09/11 01:11:13;;;;;;;11.40;8.40;;;;;;;24.03;100.00;101261.91;5193283;28;20027;-76
2023/09/11 01:13:44;;;;;;;16.88;9.23;;;;;;;24.11;100.00;101242.31;5188444;28;20048;-77
2023/09/11 01:16:28;;;;;;;11.98;9.18;;;;;;;24.24;100.00;101245.31;5192365;28;20117;-77
2023/09/11 01:19:16;;;;;;;18.40;8.88;;;;;;;23.96;100.00;101226.16;5186833;28;20032;-77
2023/09/11 01:22:12;;;;;;;16.50;8.32;;;;;;;24.29;100.00;101250.16;5189797;28;20038;-77
2023/09/11 01:25:06;;;;;;;10.60;8.82;;;;;;;24.22;100.00;101258.03;5187394;28;20042;-77
2023/09/11 01:28:08;;;;;;;13.57;8.70;;;;;;;24.07;100.00;101243.69;5179912;28;20033;-77
2023/09/11 01:30:42;;;;;;;15.65;8.77;;;;;;;23.63;100.00;101227.91;5185521;28;20085;-77
2023/09/11 01:33:14;;;;;;;19.17;9.27;;;;;;;23.92;100.00;101247.91;5182659;28;20025;-77
2023/09/11 01:35:45;;;;;;;15.45;8.60;;;;;;;23.76;100.00;101234.56;5190499;28;20030;-77
2023/09/11 01:38:17;;;;;;;10.63;9.40;;;;;;;23.66;100.00;101237.41;5193416;28;20026;-78
2023/09/11 01:40:54;;;;;;;13.80;9.10;;;;;;;23.74;100.00;101215.19;5193349;28;20129;-77
2023/09/11 01:43:31;;;;;;;12.57;8.55;;;;;;;23.84;100.00;101218.50;5196589;28;20030;-78
2023/09/11 01:46:05;;;;;;;15.45;7.88;;;;;;;24.02;100.00;101245.03;5200007;28;20034;-77
2023/09/11 01:48:37;;;;;;;13.70;8.65;;;;;;;23.65;100.00;101223.22;5214206;28;20018;-78
2023/09/11 01:51:10;;;;;;;16.98;7.95;;;;;;;23.58;100.00;101248.94;5222304;28;20022;-78
2023/09/11 01:53:42;;;;;;;13.80;9.00;;;;;;;23.67;100.00;101205.16;5218826;28;20466;-77
2023/09/11 01:56:14;;;;;;;17.30;8.98;;;;;;;23.89;100.00;101240.22;5215450;28;20030;-77
2023/09/11 01:58:46;;;;;;;14.82;8.18;;;;;;;23.88;100.00;101241.22;5207103;28;20030;-76
2023/09/11 02:01:17;;;;;;;11.88;8.23;;;;;;;23.96;100.00;101239.53;5193314;28;20084;-77
2023/09/11 02:03:49;;;;;;;12.30;8.35;;;;;;;23.48;100.00;101218.88;5190806;28;20065;-77
2023/09/11 02:06:20;;;;;;;17.50;9.43;;;;;;;23.71;100.00;101224.38;5191756;28;20382;-77
2023/09/11 02:08:54;;;;;;;14.73;9.23;;;;;;;23.93;100.00;101244.22;5192381;28;20044;-78
2023/09/11 02:11:25;;;;;;;13.57;9.25;;;;;;;23.65;100.00;101206.34;5188894;28;20030;-77
2023/09/11 02:14:00;;;;;;;16.00;9.25;;;;;;;23.47;100.00;101214.56;5191742;28;20048;-78
2023/09/11 02:16:31;;;;;;;10.10;8.50;;;;;;;23.37;100.00;101228.88;5182789;28;20552;-78
2023/09/11 02:19:02;;;;;;;17.10;9.40;;;;;;;23.32;100.00;101231.22;5187989;28;20034;-77
2023/09/11 02:21:34;;;;;;;9.75;8.68;;;;;;;23.18;100.00;101209.53;5186763;28;20114;-77
2023/09/11 02:24:05;;;;;;;10.65;8.85;;;;;;;22.96;100.00;101206.53;5188040;28;20034;-77
2023/09/11 02:26:37;;;;;;;15.93;9.82;;;;;;;23.20;100.00;101222.72;5190616;28;20028;-77
2023/09/11 02:29:08;;;;;;;10.77;9.07;;;;;;;23.26;100.00;101205.19;5180528;28;20085;-77
2023/09/11 02:31:40;;;;;;;13.68;9.45;;;;;;;22.82;100.00;101193.81;5187039;28;20033;-77
2023/09/11 02:34:11;;;;;;;14.15;9.77;;;;;;;22.81;100.00;101194.84;5190909;28;20038;-77
2023/09/11 02:36:42;;;;;;;16.35;9.30;;;;;;;23.02;100.00;101197.00;5190423;28;20116;-78
2023/09/11 02:39:14;;;;;;;17.83;8.27;;;;;;;22.96;100.00;101197.69;5185449;28;20030;-76
2023/09/11 02:41:45;;;;;;;11.73;8.57;;;;;;;22.82;100.00;101197.34;5187307;28;20037;-75
2023/09/11 02:44:16;;;;;;;13.13;9.05;;;;;;;22.98;100.00;101189.50;5186216;28;20027;-75
2023/09/11 02:46:48;;;;;;;11.32;8.27;;;;;;;23.05;100.00;101195.84;5190101;28;20025;-77
2023/09/11 02:49:19;;;;;;;13.25;8.70;;;;;;;22.89;100.00;101197.50;5190467;28;20941;-75
2023/09/11 02:51:50;;;;;;;12.38;8.25;;;;;;;22.65;100.00;101185.81;5191915;28;20034;-76
2023/09/11 02:54:22;;;;;;;9.15;8.15;;;;;;;22.79;100.00;101196.84;5189871;28;20125;-76
2023/09/11 02:56:53;;;;;;;13.23;9.00;;;;;;;22.53;100.00;101179.06;5192355;28;20045;-77
2023/09/11 02:59:27;;;;;;;15.52;9.75;;;;;;;22.81;100.00;101219.69;5187893;28;20102;-77
2023/09/11 03:01:58;;;;;;;19.88;9.10;;;;;;;22.53;100.00;101184.41;5179374;28;20081;-78
2023/09/11 03:04:29;;;;;;;11.95;9.20;;;;;;;22.86;100.00;101203.19;5187838;28;20043;-77
2023/09/11 03:07:01;;;;;;;12.50;9.25;;;;;;;22.27;100.00;101162.19;5185148;28;20038;-77
2023/09/11 03:09:32;;;;;;;11.60;9.52;;;;;;;22.34;100.00;101170.38;5181143;28;20030;-77
2023/09/11 03:12:04;;;;;;;12.05;7.88;;;;;;;22.54;100.00;101168.22;5183009;28;20034;-76
2023/09/11 03:14:35;;;;;;;14.82;8.95;;;;;;;22.80;100.00;101172.63;5182968;28;20106;-77
2023/09/11 03:17:07;;;;;;;12.63;8.82;;;;;;;22.50;100.00;101163.41;5191538;28;20053;-77
2023/09/11 03:19:39;;;;;;;16.23;9.40;;;;;;;22.50;100.00;101174.06;5192650;28;20022;-76
2023/09/11 03:22:11;;;;;;;16.25;9.18;;;;;;;22.34;100.00;101157.03;5190026;28;20042;-76
2023/09/11 03:24:42;;;;;;;11.23;8.98;;;;;;;22.43;100.00;101188.03;5188753;28;20105;-77
2023/09/11 03:27:14;;;;;;;11.85;9.43;;;;;;;22.31;100.00;101157.31;5191503;28;20110;-77
2023/09/11 03:29:51;;;;;;;12.63;8.13;;;;;;;22.76;100.00;101181.16;5179643;28;20366;-77
2023/09/11 03:32:22;;;;;;;14.00;9.43;;;;;;;22.22;100.00;101165.31;5192736;28;20042;-77
2023/09/11 03:34:56;;;;;;;16.10;9.13;;;;;;;22.69;100.00;101173.78;5182882;28;20382;-77
2023/09/11 03:37:27;;;;;;;;;;;;;;;23.22;100.00;101188.66;5187874;28;20038;-76
2023/09/11 03:39:59;;;;;;;11.52;8.63;;;;;;;22.48;100.00;101152.88;5192167;28;20403;-76
2023/09/11 03:42:30;;;;;;;14.85;8.55;;;;;;;22.33;100.00;101176.69;5192805;28;20365;-77
2023/09/11 03:45:02;;;;;;;14.82;8.85;;;;;;;22.24;100.00;101139.31;5191302;28;20437;-76
2023/09/11 03:47:33;;;;;;;14.57;9.02;;;;;;;22.59;100.00;101189.94;5187943;28;20022;-77
2023/09/11 03:50:06;;;;;;;12.30;9.85;;;;;;;22.14;100.00;101145.78;5187838;28;20121;-77
2023/09/11 03:52:38;;;;;;;15.25;8.70;;;;;;;22.21;100.00;101149.47;5191145;28;20018;-77
2023/09/11 03:55:49;;;;;;;;;;;;;;;;;;;;;
2023/09/11 03:58:20;;;;;;;18.88;9.63;;;;;;;22.42;100.00;101122.34;5171424;28;20386;-76
2023/09/11 04:00:52;;;;;;;14.30;9.30;;;;;;;22.35;100.00;101124.00;5183182;28;20026;-77
2023/09/11 04:03:23;;;;;;;14.90;8.07;;;;;;;22.57;100.00;101156.38;5187783;28;20117;-77
2023/09/11 04:05:54;;;;;;;17.08;9.48;;;;;;;22.29;100.00;101128.13;5185005;28;20032;-77
2023/09/11 04:08:27;;;;;;;15.57;8.40;;;;;;;22.58;100.00;101136.72;5189824;28;20101;-77
2023/09/11 04:10:58;;;;;;;13.15;9.13;;;;;;;22.50;100.00;101128.69;5179967;28;20027;-77
2023/09/11 04:13:29;;;;;;;18.05;9.07;;;;;;;22.55;100.00;101147.72;5190875;28;20034;-77
2023/09/11 04:16:01;;;;;;;14.57;9.57;;;;;;;22.55;100.00;101142.38;5192354;28;20065;-77
2023/09/11 04:18:32;;;;;;;14.18;8.20;;;;;;;22.37;100.00;101146.00;5193789;28;20045;-77
2023/09/11 04:21:05;;;;;;;18.50;8.95;;;;;;;22.30;100.00;101119.16;5190036;28;20031;-77
2023/09/11 04:23:37;;;;;;;14.90;8.35;;;;;;;22.43;100.00;101124.00;5194638;28;20110;-78
2023/09/11 04:26:08;;;;;;;13.18;8.02;;;;;;;22.53;100.00;101141.72;5188448;28;20129;-78
2023/09/11 04:28:40;;;;;;;18.42;8.93;;;;;;;22.36;100.00;101114.97;5192902;28;20022;-78
2023/09/11 04:31:11;;;;;;;13.50;7.85;;;;;;;22.37;100.00;101114.00;5193172;28;20045;-78
2023/09/11 04:33:44;;;;;;;11.93;7.78;;;;;;;22.55;100.00;101129.03;5193224;28;20062;-78
2023/09/11 04:36:15;;;;;;;12.63;8.50;;;;;;;22.29;100.00;101098.78;5193003;28;20026;-78
2023/09/11 04:38:46;;;;;;;19.90;8.85;;;;;;;22.37;100.00;101100.66;5194033;28;20090;-78
2023/09/11 04:41:18;;;;;;;12.95;8.23;;;;;;;22.40;100.00;101118.16;5188795;28;20026;-78
2023/09/11 04:43:49;;;;;;;17.98;9.25;;;;;;;22.32;100.00;101103.81;5193421;28;20118;-77
2023/09/11 04:46:20;;;;;;;12.27;8.35;;;;;;;22.33;100.00;101110.81;5187972;28;20031;-78
2023/09/11 04:48:52;;;;;;;17.33;9.05;;;;;;;22.27;100.00;101118.66;5189555;28;20030;-77
2023/09/11 04:51:24;;;;;;;19.00;8.73;;;;;;;22.19;100.00;101114.13;5191672;28;20542;-78
2023/09/11 04:53:56;;;;;;;15.93;9.13;;;;;;;22.28;100.00;101121.16;5190767;28;20018;-78
2023/09/11 04:56:27;;;;;;;15.73;8.73;;;;;;;22.36;100.00;101147.00;5184283;28;20034;-77
2023/09/11 04:58:58;;;;;;;17.70;8.45;;;;;;;22.03;100.00;101118.41;5193291;28;20034;-78
2023/09/11 05:01:30;;;;;;;14.60;8.63;;;;;;;22.11;100.00;101137.09;5187577;28;20411;-78
2023/09/11 05:04:03;;;;;;;15.30;9.20;;;;;;;21.88;100.00;101110.19;5191903;28;20042;-77
2023/09/11 05:06:34;;;;;;;18.70;9.02;;;;;;;22.10;100.00;101150.59;5193167;28;20037;-78
2023/09/11 05:09:07;;;;;;;16.50;8.88;;;;;;;21.82;100.00;101110.84;5190868;28;20034;-76
2023/09/11 05:11:38;;;;;;;18.10;9.18;;;;;;;21.95;100.00;101127.22;5187937;28;20113;-77
2023/09/11 05:14:09;;;;;;;14.70;8.82;;;;;;;21.87;100.00;101108.53;5191673;28;20015;-77
2023/09/11 05:16:41;;;;;;;12.85;8.20;;;;;;;21.96;100.00;101150.22;5187134;28;20038;-77
2023/09/11 05:19:12;;;;;;;13.55;8.98;;;;;;;21.91;100.00;101165.84;5189909;28;20113;-77
2023/09/11 05:21:44;;;;;;;15.98;8.50;;;;;;;22.16;100.00;101138.44;5191262;28;20030;-77
2023/09/11 05:24:15;;;;;;;16.55;8.88;;;;;;;21.82;100.00;101140.97;5192368;28;20413;-77
2023/09/11 05:26:47;;;;;;;16.83;8.88;;;;;;;22.16;100.00;101152.63;5189243;28;20026;-77
2023/09/11 05:29:18;;;;;;;14.90;8.02;;;;;;;21.92;100.00;101114.22;5190354;28;20034;-78
2023/09/11 05:31:52;;;;;;;9.50;7.90;;;;;;;21.70;100.00;101107.56;5191429;28;20073;-77
2023/09/11 05:34:24;;;;;;;15.10;8.23;;;;;;;22.09;100.00;101128.44;5190419;28;20022;-76
2023/09/11 05:36:55;;;;;;;14.23;8.15;;;;;;;22.29;100.00;101149.47;5192076;28;20061;-78
2023/09/11 05:39:33;;;;;;;17.63;9.48;;;;;;;22.34;100.00;101157.84;5192378;28;20029;-77
2023/09/11 05:42:31;;;;;;;10.85;8.00;;;;;;;22.09;100.00;101114.25;5188795;28;20129;-77
2023/09/11 05:48:30;;;;;;;13.70;7.90;;;;;;;22.21;100.00;101163.66;5193401;22;20754;-68
2023/09/11 05:51:02;;;;;;;13.27;7.75;;;;;;;22.38;100.00;101173.53;5172187;28;20042;-69
2023/09/11 05:53:34;;;;;;;11.50;8.13;;;;;;;22.40;100.00;101175.03;5172801;28;20038;-70
2023/09/11 05:56:06;;;;;;;17.15;8.05;;;;;;;22.41;100.00;101179.34;5154158;28;20019;-69
2023/09/11 05:58:37;;;;;;;12.68;7.85;;;;;;;22.33;100.00;101171.34;5182425;28;20490;-70
2023/09/11 06:01:08;;;;;;;14.15;8.00;;;;;;;22.37;100.00;101183.38;5174597;28;20027;-70
2023/09/11 06:03:40;;;;;;;14.43;8.25;;;;;;;22.19;100.00;101186.97;5174461;28;20153;-69
2023/09/11 06:06:11;;;;;;;20.88;8.18;;;;;;;22.13;100.00;101160.97;5174091;28;20037;-69
2023/09/11 06:08:42;;;;;;;18.35;8.38;;;;;;;22.46;100.00;101182.38;5174679;28;20382;-69
2023/09/11 06:11:13;;;;;;;22.13;9.05;;;;;;;22.33;100.00;101182.00;5173531;28;20486;-70
2023/09/11 06:13:45;;;;;;;15.23;8.35;;;;;;;22.39;100.00;101160.03;5174360;28;20054;-70
2023/09/11 06:16:16;;;;;;;23.17;9.02;;;;;;;22.46;100.00;101193.03;5174102;28;20038;-69
2023/09/11 06:18:47;;;;;;;14.02;7.63;;;;;;;22.53;100.00;101189.75;5173924;28;20073;-69
2023/09/11 06:21:19;;;;;;;19.42;7.82;;;;;;;22.57;100.00;101193.75;5171038;28;20039;-70
2023/09/11 06:23:50;;;;;;;18.73;9.73;;;;;;;22.39;100.00;101183.19;5174767;28;20066;-70
2023/09/11 06:26:21;;;;;;;13.55;8.40;;;;;;;22.42;100.00;101181.06;5172970;28;20027;-70
2023/09/11 06:28:53;;;;;;;14.30;7.97;;;;;;;22.47;100.00;101192.06;5172480;28;20113;-70
2023/09/11 06:31:24;;;;;;;14.60;8.07;;;;;;;22.50;100.00;101187.41;5172208;28;20093;-70
2023/09/11 06:33:55;;;;;;;25.20;8.43;;;;;;;22.41;100.00;101190.03;5174278;28;20045;-70
2023/09/11 06:36:27;;;;;;;16.02;7.95;;;;;;;22.50;100.00;101192.75;5172984;28;20043;-70
2023/09/11 06:38:58;;;;;;;18.98;8.20;;;;;;;22.47;100.00;101188.56;5173180;28;20054;-70
2023/09/11 06:41:29;;;;;;;16.00;8.15;;;;;;;22.53;100.00;101197.75;5172068;28;20137;-71
2023/09/11 06:44:02;;;;;;;13.77;8.27;;;;;;;22.52;100.00;101198.72;5170921;28;20033;-70
2023/09/11 06:46:33;;;;;;;17.27;8.93;;;;;;;22.34;100.00;101163.16;5173583;28;20023;-70
2023/09/11 06:49:04;;;;;;;19.55;8.25;;;;;;;22.58;100.00;101193.59;5173074;28;20042;-70
2023/09/11 06:51:36;;;;;;;14.75;8.15;;;;;;;22.52;100.00;101198.72;5173846;28;20667;-70
2023/09/11 06:54:09;;;;;;;26.58;9.35;;;;;;;22.68;100.00;101200.66;5173069;28;20488;-70
2023/09/11 06:56:41;;;;;;;20.63;9.18;;;;;;;22.70;100.00;101193.31;5172586;28;20033;-70
2023/09/11 06:59:12;;;;;;;22.25;8.75;;;;;;;22.71;100.00;101201.16;5173087;28;20027;-70
2023/09/11 07:01:43;;;;;;;13.40;8.02;;;;;;;22.74;100.00;101204.50;5173690;28;20030;-70
2023/09/11 07:04:15;;;;;;;15.88;8.60;;;;;;;22.73;100.00;101190.31;5172663;28;20034;-70
2023/09/11 07:06:46;;;;;;;15.48;9.52;;;;;;;22.76;100.00;101197.97;5172857;28;20039;-70
2023/09/11 07:09:17;;;;;;;13.82;8.02;;;;;;;22.80;100.00;101190.47;5173244;28;20024;-70
2023/09/11 07:11:52;;;;;;;13.63;8.48;;;;;;;22.94;100.00;101187.16;5172527;28;20038;-71
2023/09/11 07:14:24;;;;;;;15.63;9.23;;;;;;;22.94;100.00;101189.84;5172839;28;20458;-71
2023/09/11 07:17:00;;;;;;;14.43;7.82;;;;;;;23.00;100.00;101193.69;5173186;28;20069;-71
2023/09/11 07:19:31;;;;;;;14.88;8.82;;;;;;;23.00;100.00;101176.81;5173180;28;20027;-71
2023/09/11 07:22:03;;;;;;;14.13;9.07;;;;;;;23.03;100.00;101182.66;5173258;28;20046;-71
2023/09/11 07:24:34;;;;;;;20.48;9.55;;;;;;;23.04;100.00;101172.81;5172929;28;20099;-71
2023/09/11 07:27:05;;;;;;;16.70;8.70;;;;;;;23.10;100.00;101172.16;5172071;28;20031;-71
2023/09/11 07:29:37;;;;;;;17.63;9.32;;;;;;;23.21;100.00;101190.50;5173066;28;20027;-71
2023/09/11 07:32:08;;;;;;;17.23;10.00;;;;;;;23.27;100.00;101178.31;5172975;28;20088;-71
2023/09/11 07:34:40;;;;;;;16.10;10.57;;;;;;;23.38;100.00;101195.84;5173306;28;20049;-70
2023/09/11 07:37:11;;;;;;;16.52;10.68;;;;;;;23.37;100.00;101183.47;5173353;28;20594;-70
2023/09/11 07:39:43;;;;;;;19.27;9.95;;;;;;;23.55;100.00;101198.50;5173231;28;20038;-71
2023/09/11 07:42:14;;;;;;;16.05;9.98;;;;;;;23.64;100.00;101200.16;5171832;28;20441;-71
2023/09/11 07:44:46;;;;;;;19.00;9.68;;;;;;;23.73;100.00;101198.31;5173312;28;20494;-70
2023/09/11 07:47:17;;;;;;;19.65;10.45;;;;;;;23.80;100.00;101207.31;5171765;28;20039;-70
2023/09/11 07:49:49;;;;;;;20.70;10.73;;;;;;;23.95;100.00;101195.06;5172771;28;20133;-72
2023/09/11 07:52:20;;;;;;;17.33;10.48;;;;;;;24.07;100.00;101195.53;5171451;28;20410;-70
2023/09/11 07:54:51;;;;;;;16.25;11.40;;;;;;;24.09;100.00;101197.00;5167250;28;20034;-72
2023/09/11 07:57:23;;;;;;;17.30;11.15;;;;;;;24.19;100.00;101196.84;5176300;28;20142;-72
2023/09/11 07:59:54;;;;;;;14.98;10.38;;;;;;;24.41;100.00;101215.78;5177737;28;20038;-72
2023/09/11 08:02:25;;;;;;;17.70;11.98;;;;;;;24.55;100.00;101216.06;5176636;28;20027;-71
2023/09/11 08:04:57;;;;;;;16.95;10.38;;;;;;;24.62;100.00;101215.19;5177181;28;20046;-72
2023/09/11 08:07:28;;;;;;;16.70;10.77;;;;;;;24.73;100.00;101224.63;5175313;28;20034;-71
2023/09/11 08:09:59;;;;;;;14.82;11.23;;;;;;;24.94;100.00;101219.69;5176323;28;20062;-71
2023/09/11 08:12:33;;;;;;;19.77;13.13;;;;;;;25.13;100.00;101219.19;5174469;28;20030;-71
2023/09/11 08:15:05;;;;;;;17.35;10.52;;;;;;;25.25;100.00;101226.81;5175409;28;20124;-71
2023/09/11 08:17:36;;;;;;;11.07;9.93;;;;;;;25.43;100.00;101225.66;5176161;28;20425;-70
2023/09/11 08:20:08;;;;;;;17.45;10.73;;;;;;;25.44;100.00;101219.25;5175205;28;20034;-71
2023/09/11 08:22:41;;;;;;;22.58;14.15;;;;;;;25.56;100.00;101235.72;5173358;28;20034;-70
2023/09/11 08:25:13;;;;;;;19.50;12.65;;;;;;;25.74;100.00;101232.75;5172862;28;20081;-71
2023/09/11 08:27:44;;;;;;;23.27;13.60;;;;;;;25.76;100.00;101222.66;5190112;28;20027;-71
2023/09/11 08:30:16;;;;;;;14.60;12.60;;;;;;;26.00;100.00;101212.66;5174489;28;20023;-70
2023/09/11 08:32:47;;;;;;;18.02;13.07;;;;;;;26.07;100.00;101220.81;5176259;28;20062;-72
2023/09/11 08:35:19;;;;;;;22.02;13.45;;;;;;;26.16;100.00;101222.38;5175960;28;20055;-70
2023/09/11 08:37:50;;;;;;;19.08;13.35;;;;;;;26.08;100.00;101225.97;5175738;28;20025;-70
2023/09/11 08:40:29;;;;;;;22.25;14.50;;;;;;;26.29;100.00;101221.69;5174257;28;20031;-71
2023/09/11 08:43:02;;;;;;;14.38;11.23;;;;;;;26.25;98.42;101201.59;5173267;28;20033;-73
2023/09/11 08:45:33;;;;;;;18.60;12.75;;;;;;;26.43;98.54;101219.19;5170073;28;20041;-71
2023/09/11 08:48:10;;;;;;;14.02;12.05;;;;;;;26.72;100.00;101228.19;5174328;28;20027;-71
2023/09/11 08:51:05;;;;;;;19.73;14.05;;;;;;;26.89;99.25;101236.00;5174504;28;20077;-73
2023/09/11 08:53:38;;;;;;;19.98;13.98;;;;;;;26.72;100.00;101228.19;5176339;28;20101;-72
2023/09/11 08:56:11;;;;;;;19.92;13.32;;;;;;;26.96;96.89;101226.13;5155358;28;20054;-72
2023/09/11 08:58:43;;;;;;;17.63;10.35;;;;;;;26.99;85.60;101219.53;5168428;28;20019;-72
2023/09/11 09:01:15;;;;;;;20.02;14.20;;;;;;;26.99;87.12;101223.06;5174478;28;20401;-71
2023/09/11 09:03:49;;;;;;;13.02;11.60;;;;;;;26.99;89.28;101228.44;5174529;28;20058;-74
2023/09/11 09:06:20;;;;;;;15.05;12.25;;;;;;;27.18;86.54;101235.03;5174345;28;20031;-72
2023/09/11 09:08:52;;;;;;;16.88;12.02;;;;;;;27.24;85.28;101232.59;5172735;28;20030;-71
2023/09/11 09:11:24;;;;;;;15.75;10.10;;;;;;;27.35;80.91;101228.56;5172486;28;20118;-71
2023/09/11 09:13:56;;;;;;;20.33;12.32;;;;;;;27.65;96.77;101231.88;5174183;28;20038;-71
2023/09/11 09:16:27;;;;;;;19.35;12.73;;;;;;;27.74;93.12;101216.44;5172065;28;20513;-72
2023/09/11 09:18:58;;;;;;;14.05;10.77;;;;;;;27.72;83.71;101231.94;5173686;28;20448;-73
2023/09/11 09:21:30;;;;;;;20.52;11.20;;;;;;;27.80;89.91;101224.72;5174222;28;20106;-71
2023/09/11 09:24:09;;;;;;;16.23;10.73;;;;;;;27.95;79.94;101229.97;5170915;28;20122;-69
2023/09/11 09:26:58;;;;;;;12.95;11.02;;;;;;;28.03;80.73;101230.66;5163655;28;20027;-71
2023/09/11 09:29:37;;;;;;;20.15;10.30;;;;;;;28.14;81.80;101240.03;5171988;28;20604;-69
2023/09/11 09:32:09;;;;;;;14.52;9.82;;;;;;;28.01;83.03;101232.69;5172188;28;20398;-68
2023/09/11 09:34:54;;;;;;;16.95;11.98;;;;;;;28.24;76.43;101233.44;5171704;28;20031;-69
2023/09/11 09:37:25;;;;;;;11.95;9.30;;;;;;;27.89;74.12;101235.13;5171021;28;20019;-70
2023/09/11 09:39:57;;;;;;;14.27;9.02;;;;;;;28.03;77.97;101235.22;5170256;28;20035;-71
2023/09/11 09:42:38;;;;;;;13.73;9.35;;;;;;;28.25;74.50;101227.84;5171890;28;20023;-73
2023/09/11 09:45:27;;;;;;;11.18;8.15;;;;;;;28.31;80.67;101230.78;5171169;28;20173;-69
2023/09/11 09:48:27;;;;;;;14.68;8.85;;;;;;;28.52;74.85;101227.13;5171448;28;20378;-68
2023/09/11 09:51:01;;;;;;;17.48;9.90;;;;;;;28.49;79.36;101227.53;5158537;28;20460;-68
2023/09/11 09:53:35;;;;;;;13.98;10.05;;;;;;;28.45;85.30;101223.59;5169921;28;20042;-68
2023/09/11 09:56:08;;;;;;;14.13;7.75;;;;;;;28.43;70.36;101223.81;5179479;28;20533;-69
2023/09/11 09:58:41;;;;;;;13.50;9.10;;;;;;;28.54;74.57;101221.56;5168624;28;20039;-71
2023/09/11 10:01:15;;;;;;;12.00;8.23;;;;;;;28.65;69.50;101222.78;5174584;28;20027;-71
2023/09/11 10:03:48;;;;;;;;;;;;;;;29.14;75.03;101223.50;5174677;28;20451;-72
2023/09/11 10:06:26;;;;;;;14.10;6.95;;;;;;;28.84;73.67;101213.91;5173281;28;20365;-72
2023/09/11 10:09:06;;;;;;;11.15;7.10;;;;;;;28.87;67.34;101226.13;5171183;28;20405;-70
2023/09/11 10:11:39;;;;;;;10.75;7.05;;;;;;;28.89;70.14;101228.66;5178053;28;21654;-72
2023/09/11 10:14:11;;;;;;;16.77;7.45;;;;;;;28.70;62.23;101223.84;5171076;28;20516;-71
2023/09/11 10:16:43;;;;;;;11.23;7.28;;;;;;;28.78;64.89;101228.22;5171754;28;20031;-71
2023/09/11 10:19:16;;;;;;;8.63;6.28;;;;;;;28.85;59.23;101220.97;5171892;28;20027;-71
2023/09/11 10:21:47;;;;;;;12.32;7.20;;;;;;;29.18;57.55;101221.22;5172985;28;20027;-74
2023/09/11 10:24:18;;;;;;;9.85;6.28;;;;;;;29.55;55.36;101218.06;5171155;28;20030;-72
2023/09/11 10:26:56;;;;;;;12.52;7.32;;;;;;;29.85;56.86;101209.50;5170584;28;20409;-72
2023/09/11 10:29:47;;;;;;;12.50;6.05;;;;;;;30.49;61.35;101214.22;5170435;28;20037;-72
2023/09/11 10:32:26;;;;;;;12.70;6.68;;;;;;;30.42;54.29;101202.63;5168326;28;20058;-71
2023/09/11 10:34:57;;;;;;;15.35;6.95;;;;;;;31.03;50.49;101216.53;5170178;28;20098;-72
2023/09/11 10:37:29;;;;;;;13.05;6.10;;;;;;;31.22;51.96;101207.66;5169671;28;20552;-71
2023/09/11 10:40:03;;;;;;;13.20;6.45;;;;;;;31.09;50.70;101216.69;5169130;28;20544;-72
2023/09/11 10:42:35;;;;;;;15.55;6.35;;;;;;;31.36;49.05;101209.19;5170469;28;20102;-70
2023/09/11 10:45:24;;;;;;;9.35;5.72;;;;;;;31.79;46.56;101217.50;5170424;28;20026;-70
2023/09/11 10:47:55;;;;;;;9.00;5.47;;;;;;;31.29;51.77;101211.13;5169842;28;20082;-72
2023/09/11 10:50:35;;;;;;;11.25;6.10;;;;;;;31.70;50.83;101206.13;5169942;28;20051;-69
2023/09/11 10:53:07;;;;;;;13.73;6.50;;;;;;;31.07;50.24;101208.81;5169291;28;20041;-71
2023/09/11 10:55:39;;;;;;;10.30;5.95;;;;;;;31.25;48.04;101207.19;5162748;28;20019;-72
2023/09/11 10:58:10;;;;;;;11.45;7.10;;;;;;;31.05;54.80;101213.63;5165299;28;20421;-71
2023/09/11 11:00:42;;;;;;;20.48;7.28;;;;;;;31.32;53.25;101205.25;5170047;28;20019;-69
2023/09/11 11:03:14;;;;;;;11.13;6.05;;;;;;;31.12;51.49;101206.28;5164839;28;20682;-69
2023/09/11 11:05:46;;;;;;;11.75;6.32;;;;;;;30.88;48.29;101192.53;5170310;28;20101;-69
2023/09/11 11:08:17;;;;;;;11.48;5.60;;;;;;;31.19;50.59;101197.28;5169979;28;20070;-69
2023/09/11 11:10:56;;;;;;;13.95;6.20;;;;;;;31.01;50.25;101207.00;5169493;28;20081;-69
2023/09/11 11:13:29;;;;;;;13.02;5.97;;;;;;;30.95;48.86;101208.72;5169633;28;20027;-68
2023/09/11 11:16:15;;;;;;;12.30;6.13;;;;;;;31.22;50.76;101203.09;5170453;28;20027;-74
2023/09/11 11:18:51;;;;;;;10.00;5.78;;;;;;;30.84;47.90;101207.56;5169682;28;20026;-72
2023/09/11 11:21:22;;;;;;;9.95;5.47;;;;;;;31.06;48.46;101201.75;5169464;28;20027;-71
2023/09/11 11:23:55;;;;;;;14.55;6.82;;;;;;;31.20;50.47;101202.47;5169940;28;20057;-70
2023/09/11 11:26:30;;;;;;;10.02;5.85;;;;;;;30.96;49.70;101198.72;5172073;28;20027;-72
2023/09/11 11:29:02;;;;;;;7.28;4.85;;;;;;;30.93;49.00;101193.78;5174009;28;20058;-71
2023/09/11 11:31:35;;;;;;;12.13;5.85;;;;;;;30.93;48.66;101193.78;5173512;28;20026;-70
2023/09/11 11:34:09;;;;;;;10.07;6.28;;;;;;;31.23;47.40;101193.06;5173802;28;20126;-70
2023/09/11 11:36:41;;;;;;;14.38;7.00;;;;;;;31.02;48.64;101192.44;5173272;28;20437;-70
2023/09/11 11:39:14;;;;;;;6.72;4.85;;;;;;;30.91;48.11;101185.88;5174078;28;20049;-72
2023/09/11 11:41:45;;;;;;;6.38;4.90;;;;;;;31.09;50.25;101185.09;5162025;28;20077;-73